EmailTwitter


Observations de surface / France / LFBP (07610)

Régions: Québec | Canada | États-Unis | Europe | France | UK | Ailleurs
Station
Affichage
Infos & localisation pour LFBP (07610) | Aide pour décoder les METARs

Observations prises le 2017-11-19 à 19H30 UTC à PONT-LONG-UZEIN/, FR (LFBP)

Température: 6.0 Celsius

Point de rosée: 4.0 Celsius

Humidité relative: 87%

Vents: Sud-est à 6 km/h ou 3 noeuds.

Pression au niveau moyen de la mer: 102.50 kilopascals.

Observation METAR:

LFBP 191930Z AUTO 14003KT CAVOK 06/04 Q1025 BECMG 3000 BR=